sensor_id;sensor_type;location;lat;lon;timestamp;P1;durP1;ratioP1;P2;durP2;ratioP2
64018;SDS011;66942;52.138;5.216;2023-04-07T00:01:12;10.21;;;9.31;;
64018;SDS011;66942;52.138;5.216;2023-04-07T00:02:48;10.4;;;9.6;;
64018;SDS011;66942;52.138;5.216;2023-04-07T00:06:00;10.7;;;9.71;;
64018;SDS011;66942;52.138;5.216;2023-04-07T00:07:36;10.5;;;9.71;;
64018;SDS011;66942;52.138;5.216;2023-04-07T00:09:12;10.8;;;9.81;;
64018;SDS011;66942;52.138;5.216;2023-04-07T00:12:25;10.7;;;9.81;;
64018;SDS011;66942;52.138;5.216;2023-04-07T00:14:01;10.4;;;9.4;;
64018;SDS011;66942;52.138;5.216;2023-04-07T00:15:37;10.4;;;9.31;;
64018;SDS011;66942;52.138;5.216;2023-04-07T00:18:50;11.7;;;10.5;;
64018;SDS011;66942;52.138;5.216;2023-04-07T00:20:26;11.9;;;10.1;;
64018;SDS011;66942;52.138;5.216;2023-04-07T00:22:02;11.9;;;10.7;;
64018;SDS011;66942;52.138;5.216;2023-04-07T00:25:15;11.9;;;10.7;;
64018;SDS011;66942;52.138;5.216;2023-04-07T00:26:51;14.1;;;12.0;;
64018;SDS011;66942;52.138;5.216;2023-04-07T00:28:27;12.7;;;11.4;;
64018;SDS011;66942;52.138;5.216;2023-04-07T00:30:03;13.0;;;11.8;;
64018;SDS011;66942;52.138;5.216;2023-04-07T00:33:17;12.0;;;11.0;;
64018;SDS011;66942;52.138;5.216;2023-04-07T00:34:54;12.2;;;11.0;;
64018;SDS011;66942;52.138;5.216;2023-04-07T00:36:30;12.7;;;11.5;;
64018;SDS011;66942;52.138;5.216;2023-04-07T00:39:42;13.5;;;12.0;;
64018;SDS011;66942;52.138;5.216;2023-04-07T00:41:18;12.6;;;11.4;;
64018;SDS011;66942;52.138;5.216;2023-04-07T00:42:54;13.8;;;12.4;;
64018;SDS011;66942;52.138;5.216;2023-04-07T00:46:06;12.9;;;11.7;;
64018;SDS011;66942;52.138;5.216;2023-04-07T00:47:43;12.9;;;11.7;;
64018;SDS011;66942;52.138;5.216;2023-04-07T00:49:19;11.7;;;10.7;;
64018;SDS011;66942;52.138;5.216;2023-04-07T00:50:55;12.9;;;11.8;;
64018;SDS011;66942;52.138;5.216;2023-04-07T00:54:09;12.9;;;11.7;;
64018;SDS011;66942;52.138;5.216;2023-04-07T00:55:44;11.7;;;10.8;;
64018;SDS011;66942;52.138;5.216;2023-04-07T00:57:21;12.1;;;10.9;;
64018;SDS011;66942;52.138;5.216;2023-04-07T01:00:35;13.0;;;11.9;;
64018;SDS011;66942;52.138;5.216;2023-04-07T01:02:16;12.6;;;11.4;;
64018;SDS011;66942;52.138;5.216;2023-04-07T01:04:00;12.4;;;11.2;;
64018;SDS011;66942;52.138;5.216;2023-04-07T01:05:45;12.8;;;11.6;;
64018;SDS011;66942;52.138;5.216;2023-04-07T01:09:15;12.5;;;11.3;;
64018;SDS011;66942;52.138;5.216;2023-04-07T01:10:56;13.7;;;12.1;;
64018;SDS011;66942;52.138;5.216;2023-04-07T01:12:43;14.9;;;12.2;;
64018;SDS011;66942;52.138;5.216;2023-04-07T01:14:27;17.11;;;13.0;;
64018;SDS011;66942;52.138;5.216;2023-04-07T01:16:11;14.3;;;12.6;;
64018;SDS011;66942;52.138;5.216;2023-04-07T01:19:46;14.8;;;12.3;;
64018;SDS011;66942;52.138;5.216;2023-04-07T01:21:27;16.3;;;12.9;;
64018;SDS011;66942;52.138;5.216;2023-04-07T01:23:08;15.7;;;13.4;;
64018;SDS011;66942;52.138;5.216;2023-04-07T01:25:02;13.6;;;12.2;;
64018;SDS011;66942;52.138;5.216;2023-04-07T01:26:56;14.6;;;13.0;;
64018;SDS011;66942;52.138;5.216;2023-04-07T01:28:43;14.6;;;13.1;;
64018;SDS011;66942;52.138;5.216;2023-04-07T01:31:07;14.3;;;12.9;;
64018;SDS011;66942;52.138;5.216;2023-04-07T01:32:45;15.8;;;14.2;;
64018;SDS011;66942;52.138;5.216;2023-04-07T01:36:07;14.5;;;13.1;;
64018;SDS011;66942;52.138;5.216;2023-04-07T01:37:45;16.61;;;13.8;;
64018;SDS011;66942;52.138;5.216;2023-04-07T01:39:24;16.61;;;13.8;;
64018;SDS011;66942;52.138;5.216;2023-04-07T01:42:39;18.8;;;15.3;;
64018;SDS011;66942;52.138;5.216;2023-04-07T01:44:17;17.41;;;14.4;;
64018;SDS011;66942;52.138;5.216;2023-04-07T01:45:54;17.5;;;15.4;;
64018;SDS011;66942;52.138;5.216;2023-04-07T01:47:32;17.0;;;15.1;;
64018;SDS011;66942;52.138;5.216;2023-04-07T01:50:48;17.5;;;14.7;;
64018;SDS011;66942;52.138;5.216;2023-04-07T01:52:25;15.4;;;13.8;;
64018;SDS011;66942;52.138;5.216;2023-04-07T01:54:02;15.8;;;13.4;;
64018;SDS011;66942;52.138;5.216;2023-04-07T01:57:16;15.5;;;13.1;;
64018;SDS011;66942;52.138;5.216;2023-04-07T01:58:52;17.8;;;13.5;;
64018;SDS011;66942;52.138;5.216;2023-04-07T02:00:28;19.0;;;13.1;;
64018;SDS011;66942;52.138;5.216;2023-04-07T02:02:04;15.0;;;12.3;;
64018;SDS011;66942;52.138;5.216;2023-04-07T02:05:23;14.5;;;12.9;;
64018;SDS011;66942;52.138;5.216;2023-04-07T02:07:02;17.7;;;12.4;;
64018;SDS011;66942;52.138;5.216;2023-04-07T02:08:46;14.0;;;12.0;;
64018;SDS011;66942;52.138;5.216;2023-04-07T02:10:31;17.2;;;13.8;;
64018;SDS011;66942;52.138;5.216;2023-04-07T02:13:51;14.1;;;11.8;;
64018;SDS011;66942;52.138;5.216;2023-04-07T02:15:30;16.3;;;11.8;;
64018;SDS011;66942;52.138;5.216;2023-04-07T02:17:07;13.6;;;11.9;;
64018;SDS011;66942;52.138;5.216;2023-04-07T02:18:44;13.9;;;11.7;;
64018;SDS011;66942;52.138;5.216;2023-04-07T02:21:59;16.7;;;12.4;;
64018;SDS011;66942;52.138;5.216;2023-04-07T02:23:38;15.6;;;11.5;;
64018;SDS011;66942;52.138;5.216;2023-04-07T02:25:22;16.0;;;11.6;;
64018;SDS011;66942;52.138;5.216;2023-04-07T02:28:36;14.3;;;10.9;;
64018;SDS011;66942;52.138;5.216;2023-04-07T02:30:12;14.6;;;11.2;;
64018;SDS011;66942;52.138;5.216;2023-04-07T02:31:49;14.2;;;10.3;;
64018;SDS011;66942;52.138;5.216;2023-04-07T02:33:25;16.9;;;10.4;;
64018;SDS011;66942;52.138;5.216;2023-04-07T02:36:37;18.11;;;10.5;;
64018;SDS011;66942;52.138;5.216;2023-04-07T02:38:13;13.9;;;9.5;;
64018;SDS011;66942;52.138;5.216;2023-04-07T02:39:49;14.4;;;10.0;;
64018;SDS011;66942;52.138;5.216;2023-04-07T02:43:02;17.8;;;10.0;;
64018;SDS011;66942;52.138;5.216;2023-04-07T02:44:38;13.8;;;9.6;;
64018;SDS011;66942;52.138;5.216;2023-04-07T02:46:14;16.61;;;8.9;;
64018;SDS011;66942;52.138;5.216;2023-04-07T02:49:26;11.6;;;8.6;;
64018;SDS011;66942;52.138;5.216;2023-04-07T02:51:03;18.61;;;10.0;;
64018;SDS011;66942;52.138;5.216;2023-04-07T02:52:39;15.0;;;8.71;;
64018;SDS011;66942;52.138;5.216;2023-04-07T02:55:51;17.61;;;9.4;;
64018;SDS011;66942;52.138;5.216;2023-04-07T02:57:27;16.11;;;9.1;;
64018;SDS011;66942;52.138;5.216;2023-04-07T02:59:03;13.9;;;8.71;;
64018;SDS011;66942;52.138;5.216;2023-04-07T03:00:39;18.41;;;9.1;;
64018;SDS011;66942;52.138;5.216;2023-04-07T03:03:52;17.5;;;9.31;;
64018;SDS011;66942;52.138;5.216;2023-04-07T03:05:28;11.1;;;7.7;;
64018;SDS011;66942;52.138;5.216;2023-04-07T03:07:04;11.1;;;7.7;;
64018;SDS011;66942;52.138;5.216;2023-04-07T03:10:16;17.41;;;8.31;;
64018;SDS011;66942;52.138;5.216;2023-04-07T03:11:52;20.9;;;9.71;;
64018;SDS011;66942;52.138;5.216;2023-04-07T03:13:28;13.6;;;8.2;;
64018;SDS011;66942;52.138;5.216;2023-04-07T03:16:42;18.91;;;9.4;;
64018;SDS011;66942;52.138;5.216;2023-04-07T03:18:18;15.5;;;8.6;;
64018;SDS011;66942;52.138;5.216;2023-04-07T03:19:54;20.7;;;8.71;;
64018;SDS011;66942;52.138;5.216;2023-04-07T03:21:30;16.4;;;8.4;;
64018;SDS011;66942;52.138;5.216;2023-04-07T03:24:42;19.61;;;9.4;;
64018;SDS011;66942;52.138;5.216;2023-04-07T03:26:19;15.8;;;8.6;;
64018;SDS011;66942;52.138;5.216;2023-04-07T03:27:55;19.11;;;8.5;;
64018;SDS011;66942;52.138;5.216;2023-04-07T03:31:07;14.7;;;8.1;;
64018;SDS011;66942;52.138;5.216;2023-04-07T03:32:43;14.8;;;8.1;;
64018;SDS011;66942;52.138;5.216;2023-04-07T03:34:19;17.8;;;8.5;;
64018;SDS011;66942;52.138;5.216;2023-04-07T03:37:32;16.61;;;8.1;;
64018;SDS011;66942;52.138;5.216;2023-04-07T03:39:08;17.8;;;9.21;;
64018;SDS011;66942;52.138;5.216;2023-04-07T03:40:44;18.2;;;8.9;;
64018;SDS011;66942;52.138;5.216;2023-04-07T03:43:56;18.11;;;9.4;;
64018;SDS011;66942;52.138;5.216;2023-04-07T03:45:32;15.5;;;9.1;;
64018;SDS011;66942;52.138;5.216;2023-04-07T03:47:08;15.3;;;9.6;;
64018;SDS011;66942;52.138;5.216;2023-04-07T03:48:44;17.61;;;9.71;;
64018;SDS011;66942;52.138;5.216;2023-04-07T03:51:57;18.3;;;10.0;;
64018;SDS011;66942;52.138;5.216;2023-04-07T03:53:33;15.6;;;9.6;;
64018;SDS011;66942;52.138;5.216;2023-04-07T03:55:09;17.2;;;9.9;;
64018;SDS011;66942;52.138;5.216;2023-04-07T03:58:21;20.11;;;11.2;;
64018;SDS011;66942;52.138;5.216;2023-04-07T03:59:57;23.2;;;13.5;;
64018;SDS011;66942;52.138;5.216;2023-04-07T04:01:33;21.9;;;13.5;;
64018;SDS011;66942;52.138;5.216;2023-04-07T04:04:46;19.8;;;13.2;;
64018;SDS011;66942;52.138;5.216;2023-04-07T04:06:22;20.3;;;14.2;;
64018;SDS011;66942;52.138;5.216;2023-04-07T04:07:58;22.7;;;14.1;;
64018;SDS011;66942;52.138;5.216;2023-04-07T04:11:10;18.2;;;14.3;;
64018;SDS011;66942;52.138;5.216;2023-04-07T04:12:47;21.2;;;16.0;;
64018;SDS011;66942;52.138;5.216;2023-04-07T04:14:24;20.2;;;15.4;;
64018;SDS011;66942;52.138;5.216;2023-04-07T04:16:00;16.9;;;14.0;;
64018;SDS011;66942;52.138;5.216;2023-04-07T04:19:12;17.41;;;14.1;;
64018;SDS011;66942;52.138;5.216;2023-04-07T04:20:48;21.9;;;15.8;;
64018;SDS011;66942;52.138;5.216;2023-04-07T04:22:24;19.11;;;15.6;;
64018;SDS011;66942;52.138;5.216;2023-04-07T04:27:14;22.6;;;16.11;;
64018;SDS011;66942;52.138;5.216;2023-04-07T04:28:51;18.3;;;15.5;;
64018;SDS011;66942;52.138;5.216;2023-04-07T04:32:04;19.91;;;15.3;;
64018;SDS011;66942;52.138;5.216;2023-04-07T04:33:40;23.2;;;16.61;;
64018;SDS011;66942;52.138;5.216;2023-04-07T04:35:17;16.7;;;14.9;;
64018;SDS011;66942;52.138;5.216;2023-04-07T04:38:29;18.41;;;14.8;;
64018;SDS011;66942;52.138;5.216;2023-04-07T04:40:05;18.3;;;14.8;;
64018;SDS011;66942;52.138;5.216;2023-04-07T04:41:43;16.61;;;14.8;;
64018;SDS011;66942;52.138;5.216;2023-04-07T04:43:20;19.3;;;15.7;;
64018;SDS011;66942;52.138;5.216;2023-04-07T04:46:33;16.2;;;14.6;;
64018;SDS011;66942;52.138;5.216;2023-04-07T04:48:09;15.5;;;13.9;;
64018;SDS011;66942;52.138;5.216;2023-04-07T04:49:46;14.5;;;12.5;;
64018;SDS011;66942;52.138;5.216;2023-04-07T04:52:58;15.2;;;13.0;;
64018;SDS011;66942;52.138;5.216;2023-04-07T04:54:34;14.8;;;11.9;;
64018;SDS011;66942;52.138;5.216;2023-04-07T04:56:11;17.61;;;13.3;;
64018;SDS011;66942;52.138;5.216;2023-04-07T04:59:23;15.0;;;11.5;;
64018;SDS011;66942;52.138;5.216;2023-04-07T05:00:59;16.4;;;11.0;;
64018;SDS011;66942;52.138;5.216;2023-04-07T05:02:36;14.4;;;11.3;;
64018;SDS011;66942;52.138;5.216;2023-04-07T05:04:13;12.1;;;10.4;;
64018;SDS011;66942;52.138;5.216;2023-04-07T05:07:27;14.6;;;11.5;;
64018;SDS011;66942;52.138;5.216;2023-04-07T05:09:03;16.3;;;11.3;;
64018;SDS011;66942;52.138;5.216;2023-04-07T05:10:40;14.9;;;10.8;;
64018;SDS011;66942;52.138;5.216;2023-04-07T05:13:54;14.3;;;10.3;;
64018;SDS011;66942;52.138;5.216;2023-04-07T05:15:30;12.0;;;10.7;;
64018;SDS011;66942;52.138;5.216;2023-04-07T05:17:08;15.8;;;10.9;;
64018;SDS011;66942;52.138;5.216;2023-04-07T05:18:44;14.8;;;10.6;;
64018;SDS011;66942;52.138;5.216;2023-04-07T05:21:57;19.0;;;12.8;;
64018;SDS011;66942;52.138;5.216;2023-04-07T05:23:34;15.3;;;9.81;;
64018;SDS011;66942;52.138;5.216;2023-04-07T05:25:11;11.3;;;10.1;;
64018;SDS011;66942;52.138;5.216;2023-04-07T05:28:24;14.0;;;10.4;;
64018;SDS011;66942;52.138;5.216;2023-04-07T05:30:00;16.7;;;10.4;;
64018;SDS011;66942;52.138;5.216;2023-04-07T05:31:36;13.6;;;9.9;;
64018;SDS011;66942;52.138;5.216;2023-04-07T05:34:49;12.8;;;9.0;;
64018;SDS011;66942;52.138;5.216;2023-04-07T05:36:26;14.0;;;10.1;;
64018;SDS011;66942;52.138;5.216;2023-04-07T05:38:02;15.6;;;9.21;;
64018;SDS011;66942;52.138;5.216;2023-04-07T05:39:39;17.8;;;9.81;;
64018;SDS011;66942;52.138;5.216;2023-04-07T05:42:52;13.2;;;8.71;;
64018;SDS011;66942;52.138;5.216;2023-04-07T05:44:29;9.5;;;8.31;;
64018;SDS011;66942;52.138;5.216;2023-04-07T05:46:05;12.1;;;8.6;;
64018;SDS011;66942;52.138;5.216;2023-04-07T05:49:18;12.7;;;9.5;;
64018;SDS011;66942;52.138;5.216;2023-04-07T05:50:54;10.7;;;8.5;;
64018;SDS011;66942;52.138;5.216;2023-04-07T05:52:32;12.9;;;9.9;;
64018;SDS011;66942;52.138;5.216;2023-04-07T05:55:45;9.6;;;8.6;;
64018;SDS011;66942;52.138;5.216;2023-04-07T05:57:22;13.0;;;9.71;;
64018;SDS011;66942;52.138;5.216;2023-04-07T05:58:58;11.2;;;8.9;;
64018;SDS011;66942;52.138;5.216;2023-04-07T06:00:35;11.5;;;8.9;;
64018;SDS011;66942;52.138;5.216;2023-04-07T06:03:48;12.2;;;9.81;;
64018;SDS011;66942;52.138;5.216;2023-04-07T06:05:24;10.4;;;8.6;;
64018;SDS011;66942;52.138;5.216;2023-04-07T06:07:01;16.9;;;12.1;;
64018;SDS011;66942;52.138;5.216;2023-04-07T06:10:14;12.7;;;10.1;;
64018;SDS011;66942;52.138;5.216;2023-04-07T06:11:50;12.8;;;10.7;;
64018;SDS011;66942;52.138;5.216;2023-04-07T06:13:26;16.5;;;11.9;;
64018;SDS011;66942;52.138;5.216;2023-04-07T06:16:39;16.7;;;13.2;;
64018;SDS011;66942;52.138;5.216;2023-04-07T06:18:16;21.5;;;15.3;;
64018;SDS011;66942;52.138;5.216;2023-04-07T06:19:51;16.4;;;14.7;;
64018;SDS011;66942;52.138;5.216;2023-04-07T06:21:27;17.11;;;14.4;;
64018;SDS011;66942;52.138;5.216;2023-04-07T06:24:39;17.2;;;14.6;;
64018;SDS011;66942;52.138;5.216;2023-04-07T06:26:16;15.9;;;14.2;;
64018;SDS011;66942;52.138;5.216;2023-04-07T06:27:52;15.2;;;13.6;;
64018;SDS011;66942;52.138;5.216;2023-04-07T06:31:07;15.8;;;13.7;;
64018;SDS011;66942;52.138;5.216;2023-04-07T06:32:43;16.0;;;14.4;;
64018;SDS011;66942;52.138;5.216;2023-04-07T06:34:19;16.3;;;14.7;;
64018;SDS011;66942;52.138;5.216;2023-04-07T06:37:31;16.61;;;14.4;;
64018;SDS011;66942;52.138;5.216;2023-04-07T06:39:08;13.9;;;12.6;;
64018;SDS011;66942;52.138;5.216;2023-04-07T06:40:44;15.8;;;12.4;;
64018;SDS011;66942;52.138;5.216;2023-04-07T06:42:20;14.3;;;12.3;;
64018;SDS011;66942;52.138;5.216;2023-04-07T06:45:32;17.5;;;11.9;;
64018;SDS011;66942;52.138;5.216;2023-04-07T06:47:08;12.3;;;10.6;;
64018;SDS011;66942;52.138;5.216;2023-04-07T06:48:45;14.2;;;10.4;;
64018;SDS011;66942;52.138;5.216;2023-04-07T06:51:57;16.0;;;11.2;;
64018;SDS011;66942;52.138;5.216;2023-04-07T06:53:33;16.9;;;11.6;;
64018;SDS011;66942;52.138;5.216;2023-04-07T06:55:09;11.9;;;10.21;;
64018;SDS011;66942;52.138;5.216;2023-04-07T06:58:21;12.2;;;9.71;;
64018;SDS011;66942;52.138;5.216;2023-04-07T06:59:57;11.1;;;10.1;;
64018;SDS011;66942;52.138;5.216;2023-04-07T07:01:33;12.0;;;9.1;;
64018;SDS011;66942;52.138;5.216;2023-04-07T07:04:45;12.3;;;9.21;;
64018;SDS011;66942;52.138;5.216;2023-04-07T07:06:22;13.8;;;8.81;;
64018;SDS011;66942;52.138;5.216;2023-04-07T07:07:58;13.1;;;8.81;;
64018;SDS011;66942;52.138;5.216;2023-04-07T07:09:34;16.4;;;9.9;;
64018;SDS011;66942;52.138;5.216;2023-04-07T07:12:46;11.0;;;8.1;;
64018;SDS011;66942;52.138;5.216;2023-04-07T07:14:22;13.6;;;8.6;;
64018;SDS011;66942;52.138;5.216;2023-04-07T07:15:58;13.7;;;8.81;;
64018;SDS011;66942;52.138;5.216;2023-04-07T07:19:11;13.6;;;9.21;;
64018;SDS011;66942;52.138;5.216;2023-04-07T07:20:47;11.1;;;8.81;;
64018;SDS011;66942;52.138;5.216;2023-04-07T07:22:23;11.1;;;8.5;;
64018;SDS011;66942;52.138;5.216;2023-04-07T07:25:35;12.9;;;9.31;;
64018;SDS011;66942;52.138;5.216;2023-04-07T07:27:11;17.2;;;11.6;;
64018;SDS011;66942;52.138;5.216;2023-04-07T07:28:48;12.7;;;8.9;;
64018;SDS011;66942;52.138;5.216;2023-04-07T07:32:00;14.1;;;9.21;;
64018;SDS011;66942;52.138;5.216;2023-04-07T07:33:36;14.8;;;9.5;;
64018;SDS011;66942;52.138;5.216;2023-04-07T07:35:12;15.9;;;9.9;;
64018;SDS011;66942;52.138;5.216;2023-04-07T07:36:49;15.0;;;9.71;;
64018;SDS011;66942;52.138;5.216;2023-04-07T07:40:02;15.0;;;9.6;;
64018;SDS011;66942;52.138;5.216;2023-04-07T07:41:38;15.0;;;9.6;;
64018;SDS011;66942;52.138;5.216;2023-04-07T07:43:14;15.2;;;9.5;;
64018;SDS011;66942;52.138;5.216;2023-04-07T07:46:26;11.8;;;8.4;;
64018;SDS011;66942;52.138;5.216;2023-04-07T07:48:02;14.1;;;9.1;;
64018;SDS011;66942;52.138;5.216;2023-04-07T07:49:38;13.7;;;9.0;;
64018;SDS011;66942;52.138;5.216;2023-04-07T07:52:51;13.4;;;8.5;;
64018;SDS011;66942;52.138;5.216;2023-04-07T07:54:27;15.6;;;8.71;;
64018;SDS011;66942;52.138;5.216;2023-04-07T07:56:03;11.8;;;8.31;;
64018;SDS011;66942;52.138;5.216;2023-04-07T07:57:39;16.61;;;8.4;;
64018;SDS011;66942;52.138;5.216;2023-04-07T08:00:51;13.5;;;7.1;;
64018;SDS011;66942;52.138;5.216;2023-04-07T08:02:28;14.0;;;7.3;;
64018;SDS011;66942;52.138;5.216;2023-04-07T08:04:04;13.5;;;7.3;;
64018;SDS011;66942;52.138;5.216;2023-04-07T08:07:17;12.1;;;7.0;;
64018;SDS011;66942;52.138;5.216;2023-04-07T08:08:53;11.8;;;7.2;;
64018;SDS011;66942;52.138;5.216;2023-04-07T08:10:29;13.6;;;6.9;;
64018;SDS011;66942;52.138;5.216;2023-04-07T08:13:42;11.8;;;6.7;;
64018;SDS011;66942;52.138;5.216;2023-04-07T08:15:18;11.7;;;6.3;;
64018;SDS011;66942;52.138;5.216;2023-04-07T08:16:54;14.3;;;6.0;;
64018;SDS011;66942;52.138;5.216;2023-04-07T08:20:07;10.5;;;5.6;;
64018;SDS011;66942;52.138;5.216;2023-04-07T08:21:44;13.1;;;6.1;;
64018;SDS011;66942;52.138;5.216;2023-04-07T08:23:20;11.9;;;5.6;;
64018;SDS011;66942;52.138;5.216;2023-04-07T08:24:57;12.3;;;5.5;;
64018;SDS011;66942;52.138;5.216;2023-04-07T08:28:09;12.8;;;5.3;;
64018;SDS011;66942;52.138;5.216;2023-04-07T08:29:47;10.8;;;5.2;;
64018;SDS011;66942;52.138;5.216;2023-04-07T08:31:32;10.8;;;4.91;;
64018;SDS011;66942;52.138;5.216;2023-04-07T08:34:45;12.1;;;5.3;;
64018;SDS011;66942;52.138;5.216;2023-04-07T08:36:21;11.1;;;4.7;;
64018;SDS011;66942;52.138;5.216;2023-04-07T08:37:57;9.31;;;4.8;;
64018;SDS011;66942;52.138;5.216;2023-04-07T08:39:33;10.1;;;4.7;;
64018;SDS011;66942;52.138;5.216;2023-04-07T08:42:48;10.3;;;3.8;;
64018;SDS011;66942;52.138;5.216;2023-04-07T08:44:24;12.6;;;4.7;;
64018;SDS011;66942;52.138;5.216;2023-04-07T08:46:03;8.6;;;3.5;;
64018;SDS011;66942;52.138;5.216;2023-04-07T08:49:17;8.71;;;4.1;;
64018;SDS011;66942;52.138;5.216;2023-04-07T08:50:56;10.7;;;4.5;;
64018;SDS011;66942;52.138;5.216;2023-04-07T08:52:34;8.31;;;3.7;;
64018;SDS011;66942;52.138;5.216;2023-04-07T08:54:18;8.71;;;3.2;;
64018;SDS011;66942;52.138;5.216;2023-04-07T08:57:32;10.1;;;3.7;;
64018;SDS011;66942;52.138;5.216;2023-04-07T08:59:10;10.0;;;3.2;;
64018;SDS011;66942;52.138;5.216;2023-04-07T09:00:48;8.81;;;2.9;;
64018;SDS011;66942;52.138;5.216;2023-04-07T09:04:03;8.81;;;2.9;;
64018;SDS011;66942;52.138;5.216;2023-04-07T09:05:40;8.31;;;3.3;;
64018;SDS011;66942;52.138;5.216;2023-04-07T09:07:19;10.3;;;3.3;;
64018;SDS011;66942;52.138;5.216;2023-04-07T09:08:55;6.5;;;2.4;;
64018;SDS011;66942;52.138;5.216;2023-04-07T09:12:07;7.6;;;2.8;;
64018;SDS011;66942;52.138;5.216;2023-04-07T09:13:43;7.8;;;2.8;;
64018;SDS011;66942;52.138;5.216;2023-04-07T09:15:20;8.0;;;3.2;;
64018;SDS011;66942;52.138;5.216;2023-04-07T09:18:33;8.6;;;3.1;;
64018;SDS011;66942;52.138;5.216;2023-04-07T09:20:09;8.4;;;2.9;;
64018;SDS011;66942;52.138;5.216;2023-04-07T09:21:47;6.6;;;3.2;;
64018;SDS011;66942;52.138;5.216;2023-04-07T09:23:28;7.2;;;3.1;;
64018;SDS011;66942;52.138;5.216;2023-04-07T09:26:55;9.21;;;3.2;;
64018;SDS011;66942;52.138;5.216;2023-04-07T09:28:45;6.3;;;2.9;;
64018;SDS011;66942;52.138;5.216;2023-04-07T09:30:22;7.6;;;3.3;;
64018;SDS011;66942;52.138;5.216;2023-04-07T09:31:59;7.9;;;3.2;;
64018;SDS011;66942;52.138;5.216;2023-04-07T09:35:11;6.7;;;3.0;;
64018;SDS011;66942;52.138;5.216;2023-04-07T09:36:48;6.4;;;2.7;;
64018;SDS011;66942;52.138;5.216;2023-04-07T09:38:26;6.5;;;3.0;;
64018;SDS011;66942;52.138;5.216;2023-04-07T09:40:09;8.71;;;2.8;;
64018;SDS011;66942;52.138;5.216;2023-04-07T09:43:21;7.7;;;3.1;;
64018;SDS011;66942;52.138;5.216;2023-04-07T09:44:57;7.3;;;2.6;;
64018;SDS011;66942;52.138;5.216;2023-04-07T09:46:33;5.6;;;3.0;;
64018;SDS011;66942;52.138;5.216;2023-04-07T09:49:55;7.3;;;3.3;;
64018;SDS011;66942;52.138;5.216;2023-04-07T09:51:32;7.5;;;2.7;;
64018;SDS011;66942;52.138;5.216;2023-04-07T09:53:08;6.7;;;2.9;;
64018;SDS011;66942;52.138;5.216;2023-04-07T09:56:22;7.2;;;3.4;;
64018;SDS011;66942;52.138;5.216;2023-04-07T09:58:00;10.6;;;4.5;;
64018;SDS011;66942;52.138;5.216;2023-04-07T09:59:39;10.6;;;4.5;;
64018;SDS011;66942;52.138;5.216;2023-04-07T10:01:16;11.2;;;4.61;;
64018;SDS011;66942;52.138;5.216;2023-04-07T10:04:29;8.5;;;4.0;;
64018;SDS011;66942;52.138;5.216;2023-04-07T10:06:05;10.7;;;4.5;;
64018;SDS011;66942;52.138;5.216;2023-04-07T10:07:42;14.6;;;4.8;;
64018;SDS011;66942;52.138;5.216;2023-04-07T10:10:55;10.8;;;4.2;;
64018;SDS011;66942;52.138;5.216;2023-04-07T10:12:32;10.5;;;4.2;;
64018;SDS011;66942;52.138;5.216;2023-04-07T10:14:09;8.5;;;3.9;;
64018;SDS011;66942;52.138;5.216;2023-04-07T10:15:46;8.81;;;3.8;;
64018;SDS011;66942;52.138;5.216;2023-04-07T10:19:01;8.6;;;4.0;;
64018;SDS011;66942;52.138;5.216;2023-04-07T10:20:38;8.4;;;4.1;;
64018;SDS011;66942;52.138;5.216;2023-04-07T10:22:15;11.1;;;4.7;;
64018;SDS011;66942;52.138;5.216;2023-04-07T10:25:40;10.6;;;4.61;;
64018;SDS011;66942;52.138;5.216;2023-04-07T10:27:20;11.2;;;5.3;;
64018;SDS011;66942;52.138;5.216;2023-04-07T10:29:03;8.71;;;4.61;;
64018;SDS011;66942;52.138;5.216;2023-04-07T10:30:45;13.2;;;5.7;;
64018;SDS011;66942;52.138;5.216;2023-04-07T10:33:59;11.9;;;5.3;;
64018;SDS011;66942;52.138;5.216;2023-04-07T10:36:01;8.81;;;4.5;;
64018;SDS011;66942;52.138;5.216;2023-04-07T10:38:08;11.1;;;4.8;;
64018;SDS011;66942;52.138;5.216;2023-04-07T10:39:46;9.31;;;4.7;;
64018;SDS011;66942;52.138;5.216;2023-04-07T10:41:30;9.31;;;5.6;;
64018;SDS011;66942;52.138;5.216;2023-04-07T10:43:07;11.9;;;6.0;;
64018;SDS011;66942;52.138;5.216;2023-04-07T10:46:22;11.7;;;6.3;;
64018;SDS011;66942;52.138;5.216;2023-04-07T10:48:13;11.7;;;6.3;;
64018;SDS011;66942;52.138;5.216;2023-04-07T10:50:22;14.7;;;6.8;;
64018;SDS011;66942;52.138;5.216;2023-04-07T10:52:20;8.31;;;6.5;;
64018;SDS011;66942;52.138;5.216;2023-04-07T10:54:15;11.7;;;6.5;;
64018;SDS011;66942;52.138;5.216;2023-04-07T10:55:53;12.6;;;7.0;;
64018;SDS011;66942;52.138;5.216;2023-04-07T10:59:13;10.0;;;6.9;;
64018;SDS011;66942;52.138;5.216;2023-04-07T11:01:21;9.4;;;6.1;;
64018;SDS011;66942;52.138;5.216;2023-04-07T11:02:57;10.6;;;7.0;;
64018;SDS011;66942;52.138;5.216;2023-04-07T11:04:46;10.9;;;6.4;;
64018;SDS011;66942;52.138;5.216;2023-04-07T11:06:23;9.6;;;6.0;;
64018;SDS011;66942;52.138;5.216;2023-04-07T11:09:35;11.5;;;6.1;;
64018;SDS011;66942;52.138;5.216;2023-04-07T11:11:12;9.4;;;5.4;;
64018;SDS011;66942;52.138;5.216;2023-04-07T11:12:58;11.7;;;5.4;;
64018;SDS011;66942;52.138;5.216;2023-04-07T11:14:42;12.0;;;5.2;;
64018;SDS011;66942;52.138;5.216;2023-04-07T11:18:11;13.0;;;5.2;;
64018;SDS011;66942;52.138;5.216;2023-04-07T11:19:50;11.8;;;5.11;;
64018;SDS011;66942;52.138;5.216;2023-04-07T11:21:27;10.7;;;5.11;;
64018;SDS011;66942;52.138;5.216;2023-04-07T11:23:03;13.3;;;5.2;;
64018;SDS011;66942;52.138;5.216;2023-04-07T11:26:15;10.6;;;4.7;;
64018;SDS011;66942;52.138;5.216;2023-04-07T11:27:52;9.31;;;4.41;;
64018;SDS011;66942;52.138;5.216;2023-04-07T11:29:28;7.4;;;4.1;;
64018;SDS011;66942;52.138;5.216;2023-04-07T11:31:05;10.9;;;3.7;;
64018;SDS011;66942;52.138;5.216;2023-04-07T11:34:17;8.9;;;3.2;;
64018;SDS011;66942;52.138;5.216;2023-04-07T11:35:54;8.9;;;3.2;;
64018;SDS011;66942;52.138;5.216;2023-04-07T11:37:32;8.5;;;3.7;;
64018;SDS011;66942;52.138;5.216;2023-04-07T11:41:08;9.6;;;3.9;;
64018;SDS011;66942;52.138;5.216;2023-04-07T11:42:45;8.1;;;3.7;;
64018;SDS011;66942;52.138;5.216;2023-04-07T11:44:22;7.3;;;3.5;;
64018;SDS011;66942;52.138;5.216;2023-04-07T11:46:05;7.1;;;3.9;;
64018;SDS011;66942;52.138;5.216;2023-04-07T11:49:20;6.6;;;3.8;;
64018;SDS011;66942;52.138;5.216;2023-04-07T11:50:57;5.9;;;3.4;;
64018;SDS011;66942;52.138;5.216;2023-04-07T11:52:39;4.5;;;3.3;;
64018;SDS011;66942;52.138;5.216;2023-04-07T11:54:16;4.3;;;3.5;;
64018;SDS011;66942;52.138;5.216;2023-04-07T11:57:44;6.7;;;3.3;;
64018;SDS011;66942;52.138;5.216;2023-04-07T11:59:22;4.8;;;2.31;;
64018;SDS011;66942;52.138;5.216;2023-04-07T12:01:00;4.61;;;2.31;;
64018;SDS011;66942;52.138;5.216;2023-04-07T12:02:38;4.8;;;2.8;;
64018;SDS011;66942;52.138;5.216;2023-04-07T12:05:50;6.3;;;3.3;;
64018;SDS011;66942;52.138;5.216;2023-04-07T12:07:26;5.9;;;4.0;;
64018;SDS011;66942;52.138;5.216;2023-04-07T12:09:03;8.0;;;3.8;;
64018;SDS011;66942;52.138;5.216;2023-04-07T12:12:24;5.0;;;3.8;;
64018;SDS011;66942;52.138;5.216;2023-04-07T12:14:01;6.9;;;4.0;;
64018;SDS011;66942;52.138;5.216;2023-04-07T12:15:38;5.8;;;3.7;;
64018;SDS011;66942;52.138;5.216;2023-04-07T12:17:19;4.8;;;3.6;;
64018;SDS011;66942;52.138;5.216;2023-04-07T12:20:32;5.0;;;3.7;;
64018;SDS011;66942;52.138;5.216;2023-04-07T12:22:08;7.1;;;3.8;;
64018;SDS011;66942;52.138;5.216;2023-04-07T12:23:44;5.4;;;3.4;;
64018;SDS011;66942;52.138;5.216;2023-04-07T12:26:57;7.0;;;3.6;;
64018;SDS011;66942;52.138;5.216;2023-04-07T12:28:34;4.41;;;2.9;;
64018;SDS011;66942;52.138;5.216;2023-04-07T12:30:10;9.5;;;3.6;;
64018;SDS011;66942;52.138;5.216;2023-04-07T12:31:47;5.9;;;3.5;;
64018;SDS011;66942;52.138;5.216;2023-04-07T12:34:59;6.7;;;3.8;;
64018;SDS011;66942;52.138;5.216;2023-04-07T12:36:35;8.5;;;3.8;;
64018;SDS011;66942;52.138;5.216;2023-04-07T12:38:11;8.4;;;4.61;;
64018;SDS011;66942;52.138;5.216;2023-04-07T12:41:24;9.6;;;4.8;;
64018;SDS011;66942;52.138;5.216;2023-04-07T12:43:00;7.4;;;4.0;;
64018;SDS011;66942;52.138;5.216;2023-04-07T12:44:36;9.4;;;4.41;;